Time;durP1;ratioP1;P1;durP2;ratioP2;P2;SDS_P1;SDS_P2;PMS_P1;PMS_P2;Temp;Humidity;BMP_temperature;BMP_pressure;BME280_temperature;BME280_humidity;BME280_pressure;Samples;Min_cycle;Max_cycle;Signal;HPM_P1;HPM_P2
2021/04/24 07:54:48;;;;;;;3.75;0.90;;;;;;;23.14;46.86;99008.97;5095790;27;20623;-57
2021/04/24 07:57:16;;;;;;;8.38;1.00;;;;;;;23.21;47.01;99004.72;5090361;28;20233;-63
2021/04/24 07:59:43;;;;;;;6.80;0.93;;;;;;;23.16;47.80;98999.00;5092013;28;20217;-57
2021/04/24 08:02:12;;;;;;;7.65;1.50;;;;;;;23.15;47.45;98997.34;5100587;28;20306;-59
2021/04/24 08:04:38;;;;;;;8.65;1.10;;;;;;;23.17;47.31;98994.53;5084104;28;20282;-63
2021/04/24 08:07:43;;;;;;;2.97;1.02;;;;;;;23.17;46.49;98990.00;5151018;27;21341;-62
2021/04/24 08:10:09;;;;;;;9.27;0.90;;;;;;;23.17;47.62;98998.00;5134347;27;20200;-63
2021/04/24 08:12:36;;;;;;;2.78;0.90;;;;;;;23.18;47.12;99002.38;5132579;27;20228;-64
2021/04/24 08:15:02;;;;;;;8.90;1.83;;;;;;;23.06;43.26;99003.53;5124882;27;20295;-61
2021/04/24 08:17:29;;;;;;;15.45;2.47;;;;;;;22.91;42.28;99008.53;5131192;27;20201;-60
2021/04/24 08:19:55;;;;;;;13.75;2.00;;;;;;;22.91;42.60;99003.19;5127602;27;20482;-58
2021/04/24 08:22:21;;;;;;;4.43;1.40;;;;;;;23.01;43.70;99003.13;5128146;27;20498;-56
2021/04/24 08:24:48;;;;;;;9.32;1.40;;;;;;;23.01;44.62;99006.63;5130382;27;20201;-64
2021/04/24 08:27:14;;;;;;;5.00;1.15;;;;;;;23.02;45.53;98997.66;5134056;27;20260;-59
2021/04/24 08:29:40;;;;;;;5.20;1.40;;;;;;;23.05;45.36;98996.53;5130982;27;20207;-62
2021/04/24 08:32:06;;;;;;;2.00;1.20;;;;;;;23.05;45.04;98983.19;5133761;27;20220;-60
2021/04/24 08:34:32;;;;;;;8.05;1.20;;;;;;;23.06;44.94;98993.72;5127574;27;20208;-64
2021/04/24 13:33:18;;;;;;;10.27;4.22;;;;;;;22.63;29.42;98735.88;5089133;27;21077;-61
2021/04/24 13:35:48;;;;;;;14.93;5.20;;;;;;;22.64;29.26;98737.56;5056212;28;20721;-58
2021/04/24 13:38:15;;;;;;;8.23;4.20;;;;;;;22.62;29.44;98739.56;5081435;28;20288;-61
2021/04/24 13:40:42;;;;;;;11.85;4.55;;;;;;;22.58;29.12;98732.84;5079403;28;20281;-60
2021/04/24 13:43:09;;;;;;;11.90;4.30;;;;;;;22.57;28.33;98725.84;5076770;28;20435;-62
2021/04/24 13:45:35;;;;;;;10.18;4.35;;;;;;;22.65;30.42;98725.91;5087105;28;20278;-59
2021/04/24 13:48:07;;;;;;;9.98;4.38;;;;;;;22.67;30.27;98731.94;5076936;28;20326;-59
2021/04/24 13:50:36;;;;;;;20.45;4.07;;;;;;;22.68;30.13;98728.25;5070462;28;20658;-58
2021/04/24 13:53:11;;;;;;;12.98;4.55;;;;;;;22.62;30.34;98723.56;5074731;28;21209;-55
2021/04/24 13:55:37;;;;;;;11.18;3.42;;;;;;;22.77;31.86;98716.69;5075371;28;20193;-59
2021/04/24 13:58:06;;;;;;;9.70;5.20;;;;;;;22.72;28.78;98719.81;5081635;28;20230;-57
2021/04/24 14:00:33;;;;;;;9.50;3.97;;;;;;;22.63;30.38;98711.91;5079891;28;20291;-61
2021/04/24 14:03:01;;;;;;;11.60;3.97;;;;;;;22.62;30.02;98707.56;5079749;28;20218;-54
2021/04/24 14:05:27;;;;;;;9.43;3.40;;;;;;;22.64;32.33;98709.09;5074235;28;20207;-62
2021/04/24 14:07:58;;;;;;;7.43;3.00;;;;;;;22.64;31.73;98710.91;5070972;28;20227;-62
2021/04/24 14:10:25;;;;;;;5.82;2.30;;;;;;;22.72;32.28;98714.47;5070420;28;20342;-61
2021/04/24 14:12:53;;;;;;;10.75;3.05;;;;;;;22.75;33.95;98708.00;5065075;28;20351;-62
2021/04/24 14:15:21;;;;;;;15.82;3.42;;;;;;;22.78;33.65;98693.53;5070701;28;20199;-58
2021/04/24 14:17:48;;;;;;;18.00;3.90;;;;;;;22.78;33.16;98691.69;5080876;28;20324;-62
2021/04/24 14:20:17;;;;;;;77.25;6.93;;;;;;;22.80;34.00;98684.38;5076071;28;20212;-60
2021/04/24 14:22:46;;;;;;;48.33;6.05;;;;;;;22.82;34.03;98686.91;5079753;28;20299;-56
2021/04/24 14:25:15;;;;;;;27.45;4.35;;;;;;;22.84;34.63;98684.91;5086503;28;20361;-59
2021/04/24 14:27:42;;;;;;;21.30;3.75;;;;;;;22.88;35.25;98684.44;5081548;28;20989;-58
2021/04/24 14:30:12;;;;;;;21.27;3.30;;;;;;;22.94;35.54;98677.63;5077865;28;20202;-60
2021/04/24 14:32:38;;;;;;;21.55;3.08;;;;;;;22.92;35.23;98672.47;5078543;28;20310;-61
2021/04/24 14:35:06;;;;;;;20.75;4.47;;;;;;;22.99;34.20;98674.50;5076884;28;20285;-60
2021/04/24 14:37:33;;;;;;;13.00;3.38;;;;;;;23.00;32.87;98669.00;5069511;28;20716;-61
2021/04/24 14:40:00;;;;;;;11.13;3.55;;;;;;;23.01;33.69;98668.00;5076602;28;20209;-61
2021/04/24 14:42:27;;;;;;;16.55;3.58;;;;;;;23.03;33.34;98673.19;5075192;28;20244;-62
2021/04/24 14:44:53;;;;;;;20.67;3.25;;;;;;;23.02;34.46;98674.19;5064598;28;20288;-58
2021/04/24 14:47:21;;;;;;;11.43;3.25;;;;;;;22.98;34.74;98671.00;5066005;28;20205;-61
2021/04/24 14:49:47;;;;;;;10.55;3.33;;;;;;;23.01;33.66;98676.00;5063219;28;20352;-61
2021/04/24 14:52:15;;;;;;;15.35;3.03;;;;;;;23.02;34.86;98669.69;5068261;28;20584;-58
2021/04/24 14:54:42;;;;;;;15.25;3.05;;;;;;;23.03;33.81;98670.50;5064875;28;20211;-60
2021/04/24 14:57:09;;;;;;;8.93;3.00;;;;;;;23.05;33.95;98679.22;5062573;28;20226;-61
2021/04/24 14:59:37;;;;;;;7.85;2.30;;;;;;;23.05;35.71;98682.72;5061417;28;20293;-61
2021/04/24 15:02:03;;;;;;;8.52;2.83;;;;;;;23.01;35.16;98681.34;5062461;28;20194;-61
2021/04/24 15:04:31;;;;;;;12.07;2.70;;;;;;;23.01;35.53;98672.50;5062901;28;20210;-61
2021/04/24 15:06:57;;;;;;;9.18;2.53;;;;;;;23.00;34.93;98668.16;5057138;28;20210;-63
2021/04/24 15:09:24;;;;;;;10.10;2.63;;;;;;;23.06;35.34;98670.19;5058268;28;20234;-60
2021/04/24 15:11:50;;;;;;;7.53;2.60;;;;;;;23.07;35.31;98669.25;5050470;28;20268;-61
2021/04/24 15:14:18;;;;;;;17.13;3.30;;;;;;;23.00;36.58;98674.34;5057644;28;20214;-63
2021/04/24 15:16:45;;;;;;;19.75;3.80;;;;;;;23.03;36.85;98662.50;5061797;28;20333;-60
2021/04/24 15:19:12;;;;;;;19.45;4.18;;;;;;;23.07;36.37;98654.06;5065047;28;20203;-59
2021/04/24 15:21:39;;;;;;;17.38;3.20;;;;;;;23.08;36.57;98660.22;5055769;28;20581;-61
2021/04/24 15:24:07;;;;;;;25.35;3.58;;;;;;;23.04;36.51;98661.53;5056476;28;20258;-61
2021/04/24 15:26:34;;;;;;;17.25;3.63;;;;;;;23.05;35.96;98665.88;5049981;28;20211;-63
2021/04/24 15:29:00;;;;;;;14.73;3.03;;;;;;;23.04;35.99;98674.88;5062538;28;20224;-59
2021/04/24 15:31:27;;;;;;;17.65;3.38;;;;;;;22.98;35.53;98660.34;5058163;28;20317;-64
2021/04/24 15:33:56;;;;;;;14.30;3.33;;;;;;;22.85;35.11;98660.75;5057297;28;20222;-61
2021/04/24 15:36:23;;;;;;;16.60;3.00;;;;;;;22.92;36.75;98656.47;5054183;28;20219;-64
2021/04/24 15:38:50;;;;;;;7.90;2.70;;;;;;;22.79;33.36;98655.22;5056613;28;20203;-64
2021/04/24 15:41:16;;;;;;;9.40;2.90;;;;;;;22.76;33.57;98655.53;5058245;28;20194;-63
2021/04/24 15:43:42;;;;;;;10.10;2.75;;;;;;;22.77;32.48;98652.72;5057707;28;20241;-62
2021/04/24 15:46:08;;;;;;;12.10;3.20;;;;;;;22.78;32.83;98658.88;5048848;28;20211;-61
2021/04/24 15:48:36;;;;;;;16.42;3.05;;;;;;;22.79;34.54;98653.38;5055313;28;20283;-63
2021/04/24 15:51:03;;;;;;;15.40;2.92;;;;;;;22.77;34.19;98652.72;5060621;28;20202;-55
2021/04/24 15:53:29;;;;;;;6.97;2.45;;;;;;;22.76;34.26;98648.38;5050813;28;20303;-61
2021/04/24 15:55:59;;;;;;;7.80;2.30;;;;;;;22.76;33.65;98644.88;5055039;28;20213;-60
2021/04/24 15:58:26;;;;;;;8.27;2.25;;;;;;;22.72;34.62;98647.03;5059135;28;20203;-56
2021/04/24 16:00:52;;;;;;;11.60;2.70;;;;;;;22.74;35.65;98642.38;5051235;28;20963;-59
2021/04/24 16:03:18;;;;;;;7.82;2.22;;;;;;;22.66;34.18;98656.47;5057155;28;20246;-61
2021/04/24 16:05:45;;;;;;;7.22;2.10;;;;;;;22.71;35.92;98643.50;5059598;28;20215;-61
2021/04/24 16:08:12;;;;;;;8.90;2.53;;;;;;;22.67;35.08;98651.97;5048950;28;20349;-60
2021/04/24 16:10:39;;;;;;;7.72;1.98;;;;;;;22.71;35.89;98640.00;5050799;28;20242;-61
2021/04/24 16:13:05;;;;;;;11.38;2.47;;;;;;;22.76;35.94;98640.38;5053836;28;20235;-57
2021/04/24 16:15:32;;;;;;;7.32;1.88;;;;;;;22.78;37.50;98643.72;5052723;28;20195;-58
2021/04/24 16:17:58;;;;;;;9.30;2.10;;;;;;;22.84;37.00;98650.25;5053444;28;20218;-59
2021/04/24 16:20:24;;;;;;;25.67;3.75;;;;;;;22.88;36.99;98641.78;5047367;28;20560;-60
2021/04/24 16:22:51;;;;;;;24.05;7.63;;;;;;;22.92;37.98;98634.31;5050646;28;20326;-60
2021/04/24 16:25:20;;;;;;;25.70;10.80;;;;;;;22.95;37.93;98639.31;5048297;28;20203;-58
2021/04/24 16:27:46;;;;;;;31.33;16.58;;;;;;;22.99;38.34;98639.84;5052050;28;20206;-51
2021/04/24 16:30:13;;;;;;;62.78;32.75;;;;;;;23.03;38.17;98635.84;5060710;28;20703;-59
2021/04/24 16:32:39;;;;;;;69.43;39.95;;;;;;;23.06;37.88;98635.53;5052664;28;20236;-59
2021/04/24 16:35:07;;;;;;;86.30;47.65;;;;;;;23.07;38.14;98624.75;5053693;28;20293;-56
2021/04/24 16:37:34;;;;;;;146.35;82.63;;;;;;;23.11;38.60;98627.91;5052345;28;20211;-58
2021/04/24 16:40:02;;;;;;;193.68;105.97;;;;;;;23.16;38.03;98632.78;5054841;28;20297;-57
2021/04/24 16:42:29;;;;;;;266.65;148.70;;;;;;;23.17;39.17;98621.97;5048625;28;20227;-58
2021/04/24 16:44:55;;;;;;;371.67;206.77;;;;;;;23.29;40.74;98619.84;5052333;28;20199;-57
2021/04/24 16:47:21;;;;;;;504.10;308.65;;;;;;;23.34;42.82;98619.34;5056037;28;20271;-55
2021/04/24 16:49:47;;;;;;;506.30;307.52;;;;;;;23.36;44.26;98615.50;5048103;28;20207;-53
2021/04/24 16:52:13;;;;;;;512.42;312.98;;;;;;;23.36;43.34;98620.84;5050820;28;20226;-55
2021/04/24 16:54:39;;;;;;;483.77;298.52;;;;;;;23.30;42.37;98618.00;5057029;28;20297;-56
2021/04/24 16:57:07;;;;;;;451.27;283.00;;;;;;;23.33;42.01;98615.88;5046687;28;20220;-54
2021/04/24 16:59:34;;;;;;;396.10;248.50;;;;;;;23.34;42.06;98617.50;5046420;28;20248;-55
2021/04/24 17:02:00;;;;;;;373.90;238.95;;;;;;;23.38;42.99;98608.22;5045741;28;20207;-54
2021/04/24 17:04:27;;;;;;;344.02;215.13;;;;;;;23.36;41.80;98615.50;5049736;28;20210;-55
2021/04/24 17:06:53;;;;;;;314.80;197.88;;;;;;;23.33;41.87;98613.19;5049059;28;20213;-56
2021/04/24 17:09:21;;;;;;;308.70;185.88;;;;;;;23.31;41.92;98611.66;5055370;28;20297;-55
2021/04/24 17:11:47;;;;;;;298.25;177.98;;;;;;;23.28;41.55;98613.66;5060739;28;20226;-53
2021/04/24 17:14:13;;;;;;;288.75;172.27;;;;;;;23.31;41.78;98609.00;5058553;28;20231;-53
2021/04/24 17:16:41;;;;;;;269.65;155.30;;;;;;;23.32;41.52;98619.50;5048738;28;20595;-59
2021/04/24 17:19:08;;;;;;;256.27;155.77;;;;;;;23.30;41.29;98615.31;5051431;28;20203;-56
2021/04/24 17:21:35;;;;;;;246.13;145.88;;;;;;;23.27;41.75;98617.31;5049772;28;20246;-58
2021/04/24 17:24:02;;;;;;;234.98;142.57;;;;;;;23.27;41.67;98617.31;5059708;28;20610;-54
2021/04/24 17:26:28;;;;;;;223.77;135.15;;;;;;;23.28;41.77;98613.66;5053188;28;20203;-58
2021/04/24 17:28:55;;;;;;;214.75;131.73;;;;;;;23.30;41.18;98610.00;5054160;28;20647;-60
2021/04/24 17:31:21;;;;;;;200.00;117.40;;;;;;;23.28;41.29;98610.16;5048441;28;20232;-59
2021/04/24 17:33:48;;;;;;;140.20;84.40;;;;;;;23.32;39.83;98614.19;5058463;28;21157;-61
2021/04/24 17:36:14;;;;;;;173.63;103.18;;;;;;;23.28;40.65;98616.34;5063419;28;20230;-58
2021/04/24 17:38:40;;;;;;;159.73;91.05;;;;;;;23.25;40.43;98607.81;5049285;28;20310;-58
2021/04/24 17:41:07;;;;;;;106.38;61.55;;;;;;;23.20;40.93;98610.13;5060611;28;20214;-59
2021/04/24 17:43:34;;;;;;;83.20;50.03;;;;;;;23.21;40.09;98609.13;5057223;28;20226;-60
2021/04/24 17:46:01;;;;;;;95.00;57.47;;;;;;;23.14;41.83;98614.28;5054612;28;20779;-59
2021/04/24 17:48:27;;;;;;;103.70;60.10;;;;;;;23.11;41.50;98608.44;5053096;28;20203;-59
2021/04/24 17:50:55;;;;;;;107.22;58.22;;;;;;;23.13;41.44;98609.09;5052902;28;20263;-62
2021/04/24 17:53:21;;;;;;;88.82;52.67;;;;;;;23.11;40.99;98617.25;5060579;28;20272;-62
2021/04/24 17:55:48;;;;;;;50.83;29.83;;;;;;;22.87;36.51;98618.78;5056109;28;20277;-59
2021/04/24 17:58:14;;;;;;;45.17;21.55;;;;;;;22.83;35.54;98620.09;5065695;28;20202;-60
2021/04/24 18:00:40;;;;;;;43.35;24.52;;;;;;;22.82;36.05;98615.75;5057151;28;20294;-58
2021/04/24 18:03:07;;;;;;;54.97;32.65;;;;;;;22.96;37.05;98614.31;5046886;28;20230;-59
2021/04/24 18:05:33;;;;;;;57.13;33.28;;;;;;;23.07;37.56;98618.59;5035811;28;20299;-62
2021/04/24 18:08:01;;;;;;;52.65;31.98;;;;;;;23.19;38.12;98614.63;5056024;28;20948;-59
2021/04/24 18:10:27;;;;;;;53.20;32.17;;;;;;;23.24;38.38;98609.63;5058835;28;20255;-62
2021/04/24 18:12:54;;;;;;;51.67;31.42;;;;;;;23.31;38.55;98614.34;5062327;28;20257;-58
2021/04/24 18:15:21;;;;;;;50.70;30.80;;;;;;;23.38;38.94;98616.22;5057646;28;20241;-59
2021/04/24 18:17:47;;;;;;;46.88;28.35;;;;;;;23.36;38.83;98615.50;5054164;28;20303;-60
2021/04/24 18:20:18;;;;;;;48.25;25.73;;;;;;;23.38;37.83;98618.03;5058081;28;20283;-63
2021/04/24 18:22:47;;;;;;;46.10;27.85;;;;;;;23.42;38.55;98619.38;5058697;28;20381;-57
2021/04/24 18:25:15;;;;;;;47.20;28.92;;;;;;;23.49;38.36;98623.06;5058662;28;20232;-55
2021/04/24 18:27:42;;;;;;;46.95;25.92;;;;;;;23.56;38.51;98624.06;5051068;28;20211;-57
2021/04/24 18:30:17;;;;;;;45.92;25.95;;;;;;;23.59;38.82;98626.41;5052502;28;20232;-58
2021/04/24 18:32:45;;;;;;;42.90;26.20;;;;;;;23.63;39.04;98630.44;5065035;28;20318;-57
2021/04/24 18:35:12;;;;;;;43.10;25.55;;;;;;;23.65;39.10;98631.13;5060934;28;20310;-63
2021/04/24 18:37:42;;;;;;;44.03;25.48;;;;;;;23.63;38.79;98638.47;5066134;28;20213;-66
2021/04/24 18:40:10;;;;;;;43.10;24.90;;;;;;;23.64;39.98;98636.63;5059881;28;20289;-63
2021/04/24 18:42:37;;;;;;;44.03;25.45;;;;;;;23.67;39.50;98644.31;5060945;28;20254;-63
2021/04/24 18:45:05;;;;;;;37.17;22.58;;;;;;;23.66;39.69;98647.97;5059749;28;20204;-57
2021/04/24 18:47:32;;;;;;;40.20;24.02;;;;;;;23.59;40.14;98642.44;5060222;28;20203;-64
2021/04/24 18:49:58;;;;;;;48.47;26.52;;;;;;;23.58;40.24;98642.59;5055573;28;20285;-63
2021/04/24 18:52:24;;;;;;;47.70;26.08;;;;;;;23.57;40.68;98638.28;5060572;28;20321;-64
2021/04/24 18:54:51;;;;;;;40.45;24.25;;;;;;;23.56;40.04;98640.09;5055735;28;20369;-61
2021/04/24 18:57:18;;;;;;;39.75;24.95;;;;;;;23.53;39.65;98643.09;5056465;28;20315;-60
2021/04/24 18:59:49;;;;;;;39.58;24.42;;;;;;;23.49;40.26;98640.91;5049666;28;20694;-59
2021/04/24 19:02:15;;;;;;;40.85;24.85;;;;;;;23.48;40.14;98650.72;5054626;28;20833;-60
2021/04/24 19:04:41;;;;;;;40.42;24.25;;;;;;;23.46;40.40;98653.59;5051403;28;20978;-60
2021/04/24 19:07:10;;;;;;;39.67;23.92;;;;;;;23.43;40.87;98658.38;5059811;28;20279;-65
2021/04/24 19:09:39;;;;;;;37.92;23.52;;;;;;;23.40;40.95;98659.56;5051989;28;20210;-64
2021/04/24 19:12:06;;;;;;;40.45;24.08;;;;;;;23.38;41.32;98661.56;5058630;28;20237;-60
2021/04/24 19:14:32;;;;;;;35.42;22.98;;;;;;;23.37;40.50;98667.06;5059056;28;20423;-64
2021/04/24 19:16:59;;;;;;;36.88;22.52;;;;;;;23.35;41.51;98666.34;5048861;28;20345;-64
2021/04/24 19:19:26;;;;;;;37.47;22.85;;;;;;;23.34;42.09;98670.03;5051833;28;20712;-61
2021/04/24 19:21:54;;;;;;;37.25;22.48;;;;;;;23.32;42.02;98672.88;5052474;28;20708;-61
2021/04/24 19:24:21;;;;;;;40.75;23.02;;;;;;;23.29;40.93;98678.53;5053728;28;20206;-60
2021/04/24 19:26:48;;;;;;;38.65;22.45;;;;;;;23.28;41.99;98674.16;5052226;28;20242;-63
2021/04/24 19:29:15;;;;;;;36.35;21.73;;;;;;;23.27;40.69;98678.69;5050181;28;20228;-62
2021/04/24 19:31:42;;;;;;;37.08;21.80;;;;;;;23.25;41.82;98680.69;5052754;28;20214;-60
2021/04/24 19:34:09;;;;;;;34.47;21.20;;;;;;;23.24;41.80;98672.81;5051408;28;20329;-63
2021/04/24 19:36:36;;;;;;;38.42;21.00;;;;;;;23.23;42.04;98680.00;5051013;28;20203;-59
2021/04/24 19:39:04;;;;;;;36.38;21.25;;;;;;;23.21;41.61;98673.97;5055103;28;20286;-61
2021/04/24 19:41:31;;;;;;;32.60;21.02;;;;;;;23.20;42.06;98674.97;5050046;28;20203;-65
2021/04/24 19:43:58;;;;;;;33.72;20.50;;;;;;;23.20;42.11;98677.66;5050266;28;20657;-65
2021/04/24 19:46:24;;;;;;;34.42;20.15;;;;;;;23.19;42.30;98673.31;5056497;28;20196;-60
2021/04/24 19:48:51;;;;;;;33.40;20.30;;;;;;;23.17;42.33;98675.28;5056408;28;20293;-62
2021/04/24 19:51:19;;;;;;;32.10;19.08;;;;;;;23.16;42.71;98678.94;5056341;28;20629;-61
2021/04/24 19:53:45;;;;;;;30.30;18.73;;;;;;;23.17;42.42;98680.63;5049883;28;20376;-59
2021/04/24 19:56:11;;;;;;;30.60;18.73;;;;;;;23.15;41.88;98679.97;5048885;28;20207;-58
2021/04/24 19:58:37;;;;;;;29.33;18.92;;;;;;;23.14;42.35;98685.44;5051415;28;20203;-63
2021/04/24 20:01:04;;;;;;;29.40;18.27;;;;;;;23.13;42.06;98673.94;5056654;28;20207;-62
2021/04/24 20:03:32;;;;;;;31.27;18.83;;;;;;;23.10;42.21;98679.59;5050015;28;20219;-64
2021/04/24 20:05:58;;;;;;;29.25;17.65;;;;;;;23.14;42.65;98683.59;5054345;28;20266;-61
2021/04/24 20:08:25;;;;;;;27.50;17.05;;;;;;;23.17;42.63;98693.13;5057378;28;20235;-64
2021/04/24 20:10:52;;;;;;;25.35;17.15;;;;;;;23.16;42.06;98692.28;5058332;28;20320;-63
2021/04/24 20:13:18;;;;;;;24.73;15.35;;;;;;;23.16;42.33;98692.28;5056290;28;20256;-65
2021/04/24 20:15:45;;;;;;;25.63;14.30;;;;;;;23.15;42.88;98690.63;5053418;28;20206;-60
2021/04/24 20:18:12;;;;;;;21.83;14.25;;;;;;;23.17;42.63;98693.13;5051529;28;20207;-58
2021/04/24 20:20:38;;;;;;;19.75;12.93;;;;;;;23.17;43.01;98695.81;5055950;28;20272;-65
2021/04/24 20:23:05;;;;;;;20.55;13.07;;;;;;;23.18;42.62;98700.13;5064363;28;20223;-63
2021/04/24 20:25:32;;;;;;;20.10;12.00;;;;;;;23.19;41.97;98705.31;5059588;28;20271;-66
2021/04/24 20:27:58;;;;;;;20.63;12.45;;;;;;;23.23;42.21;98711.16;5056087;28;20195;-63
2021/04/24 20:30:24;;;;;;;20.40;12.93;;;;;;;23.31;41.67;98713.03;5057649;28;20606;-60
2021/04/24 20:32:51;;;;;;;20.30;12.32;;;;;;;23.31;42.40;98716.53;5056279;28;20305;-61
2021/04/24 20:35:19;;;;;;;18.52;11.68;;;;;;;23.30;42.59;98711.34;5051246;28;20204;-60
2021/04/24 20:37:45;;;;;;;20.77;12.02;;;;;;;23.28;43.77;98715.03;5053447;28;20279;-61
2021/04/24 20:40:13;;;;;;;17.88;10.63;;;;;;;23.28;44.52;98711.50;5043524;28;20309;-62
2021/04/24 20:42:40;;;;;;;21.40;11.73;;;;;;;23.27;44.76;98708.00;5054069;28;20224;-65
2021/04/24 20:45:10;;;;;;;19.00;11.25;;;;;;;23.27;44.02;98708.00;5054493;28;20192;-62
2021/04/24 20:47:36;;;;;;;17.55;11.40;;;;;;;23.27;44.76;98713.34;5059764;28;20201;-65
2021/04/24 20:50:08;;;;;;;17.27;11.45;;;;;;;23.26;45.96;98703.69;5051749;28;20326;-61
2021/04/24 20:52:34;;;;;;;18.35;10.88;;;;;;;23.25;45.09;98703.84;5050922;28;20648;-62
2021/04/24 20:55:01;;;;;;;17.35;11.25;;;;;;;23.25;45.96;98709.19;5057239;28;20729;-64
2021/04/24 20:57:27;;;;;;;16.50;9.80;;;;;;;23.22;44.59;98715.66;5057525;28;20378;-62
2021/04/24 20:59:54;;;;;;;16.25;10.65;;;;;;;23.21;45.39;98711.31;5052989;28;20419;-62
2021/04/24 21:05:01;;;;;;;17.90;10.80;;;;;;;23.21;45.09;98718.47;5051344;28;20296;-64
2021/04/24 21:07:29;;;;;;;19.70;10.75;;;;;;;23.20;44.74;98722.13;5051276;28;20239;-64
2021/04/24 21:09:55;;;;;;;14.85;9.68;;;;;;;23.18;45.27;98719.66;5055283;28;20210;-64
2021/04/24 21:12:24;;;;;;;16.70;10.10;;;;;;;23.18;44.71;98727.66;5049003;28;20231;-64
2021/04/24 21:14:51;;;;;;;18.80;9.10;;;;;;;23.19;44.82;98725.81;5048568;28;20547;-63
2021/04/24 21:17:19;;;;;;;14.85;9.45;;;;;;;23.18;44.80;98726.78;5052880;28;20207;-59
2021/04/24 21:19:46;;;;;;;20.23;9.75;;;;;;;23.18;45.60;98735.66;5051253;28;20230;-62
2021/04/24 21:22:12;;;;;;;13.05;8.88;;;;;;;23.18;44.84;98730.31;5046664;28;20219;-61
2021/04/24 21:24:38;;;;;;;13.60;9.13;;;;;;;23.17;45.64;98736.63;5053900;28;20239;-63
2021/04/24 21:27:05;;;;;;;13.35;8.88;;;;;;;23.15;45.06;98735.97;5050808;28;20289;-64
2021/04/24 21:29:31;;;;;;;13.02;9.10;;;;;;;23.16;44.85;98732.28;5055002;28;20213;-63
2021/04/24 21:31:59;;;;;;;17.80;9.13;;;;;;;23.14;45.57;98722.78;5046757;28;20812;-63
2021/04/24 21:34:26;;;;;;;12.05;7.78;;;;;;;23.13;45.73;98723.78;5049017;28;20196;-61
2021/04/24 21:36:56;;;;;;;12.95;8.60;;;;;;;23.13;45.64;98732.59;5056914;28;20571;-59
2021/04/24 21:39:22;;;;;;;12.32;8.10;;;;;;;23.13;44.51;98727.25;5046486;28;20694;-60
2021/04/24 21:41:48;;;;;;;13.00;8.02;;;;;;;23.14;45.64;98728.13;5052514;28;20684;-64
2021/04/24 21:44:15;;;;;;;11.25;7.40;;;;;;;23.12;44.90;98720.28;5047363;28;20607;-63
2021/04/24 21:46:41;;;;;;;12.60;8.10;;;;;;;23.11;44.87;98718.59;5049701;28;20229;-62
2021/04/24 21:49:07;;;;;;;11.63;8.10;;;;;;;23.11;44.93;98721.25;5052861;28;20374;-63
2021/04/24 21:51:36;;;;;;;14.15;8.35;;;;;;;23.11;44.79;98715.09;5047491;28;20284;-60
2021/04/24 21:54:02;;;;;;;13.48;7.95;;;;;;;23.09;45.78;98721.41;5053933;28;20301;-62
2021/04/24 21:56:29;;;;;;;13.02;7.05;;;;;;;23.02;41.25;98716.84;5048199;28;20890;-60
2021/04/24 22:01:38;;;;;;;9.27;5.25;;;;;;;22.86;38.95;98721.06;5055874;28;20240;-59
2021/04/24 22:04:09;;;;;;;11.80;5.57;;;;;;;22.88;38.84;98728.91;5053590;28;20389;-62
2021/04/24 22:06:36;;;;;;;13.15;5.75;;;;;;;22.90;39.83;98725.09;5050201;28;20203;-63
2021/04/24 22:09:03;;;;;;;14.80;5.57;;;;;;;22.95;40.30;98723.78;5063644;28;20255;-63
2021/04/24 22:11:31;;;;;;;10.82;5.53;;;;;;;22.97;41.76;98711.97;5059541;28;20202;-63
2021/04/24 22:13:57;;;;;;;8.80;5.65;;;;;;;22.98;42.20;98719.00;5055088;28;20238;-62
2021/04/24 22:16:26;;;;;;;9.50;5.32;;;;;;;23.00;42.92;98732.16;5058436;28;20659;-65
2021/04/24 22:18:52;;;;;;;9.60;5.85;;;;;;;22.99;42.85;98717.16;5051115;28;20652;-61
2021/04/24 22:21:18;;;;;;;9.45;5.45;;;;;;;23.00;43.19;98718.81;5055112;28;20210;-62
2021/04/24 22:23:45;;;;;;;8.75;5.45;;;;;;;23.03;42.10;98737.16;5050584;28;20302;-60
2021/04/24 22:26:11;;;;;;;10.68;5.25;;;;;;;23.01;43.06;98718.66;5053563;28;20209;-62
2021/04/24 22:28:37;;;;;;;9.35;5.30;;;;;;;22.97;43.89;98722.66;5052557;28;20294;-61
2021/04/24 22:31:04;;;;;;;13.55;5.88;;;;;;;22.96;43.66;98730.81;5059370;28;20237;-61
2021/04/24 22:33:30;;;;;;;10.73;5.30;;;;;;;22.95;44.81;98726.44;5052011;28;20245;-64
2021/04/24 22:35:56;;;;;;;16.73;5.85;;;;;;;22.94;44.60;98722.13;5050197;28;20287;-62
2021/04/24 22:38:22;;;;;;;23.98;6.93;;;;;;;22.98;45.08;98728.81;5050147;28;20199;-61
2021/04/24 22:40:49;;;;;;;24.98;6.45;;;;;;;23.00;44.99;98727.66;5058452;28;20293;-61
2021/04/24 22:43:15;;;;;;;16.25;5.93;;;;;;;23.03;44.39;98726.50;5055216;28;20223;-59
2021/04/24 22:45:41;;;;;;;23.70;6.68;;;;;;;23.05;44.54;98725.38;5055002;28;20309;-64
2021/04/24 22:48:08;;;;;;;12.05;5.90;;;;;;;23.07;44.20;98725.25;5054231;28;20382;-58
2021/04/24 22:50:35;;;;;;;19.75;6.38;;;;;;;23.08;44.89;98732.22;5066179;28;20274;-61
2021/04/24 22:53:03;;;;;;;14.82;5.68;;;;;;;23.08;45.58;98734.91;5058230;28;20309;-61
2021/04/24 22:55:31;;;;;;;14.68;5.30;;;;;;;23.06;45.07;98735.06;5059044;28;20199;-58
2021/04/24 22:57:59;;;;;;;14.05;5.80;;;;;;;23.06;44.83;98729.72;5055194;28;20214;-62
2021/04/24 23:00:30;;;;;;;11.15;5.30;;;;;;;23.06;44.63;98739.53;5055489;28;21343;-60
2021/04/24 23:02:58;;;;;;;15.70;6.07;;;;;;;23.06;45.32;98739.53;5052933;28;20309;-61
2021/04/24 23:05:24;;;;;;;18.33;5.90;;;;;;;23.06;44.45;98742.19;5057871;28;20259;-60
2021/04/24 23:07:51;;;;;;;18.02;6.22;;;;;;;23.06;44.68;98743.06;5051893;28;20305;-63
2021/04/24 23:10:18;;;;;;;13.30;5.30;;;;;;;23.05;44.07;98753.88;5056640;28;20222;-64
2021/04/24 23:12:45;;;;;;;13.30;6.15;;;;;;;23.05;44.48;98753.88;5066195;28;20306;-65
2021/04/24 23:15:14;;;;;;;15.55;5.68;;;;;;;23.05;44.29;98751.22;5060817;28;20580;-61
2021/04/24 23:17:40;;;;;;;14.07;5.63;;;;;;;23.03;44.82;98756.69;5054745;28;20305;-63
2021/04/24 23:20:08;;;;;;;18.05;5.18;;;;;;;23.01;44.22;98755.16;5052279;28;20207;-63
2021/04/24 23:22:35;;;;;;;11.93;5.32;;;;;;;23.00;44.41;98758.81;5057507;28;20366;-63
2021/04/24 23:25:01;;;;;;;13.05;5.30;;;;;;;22.98;45.02;98756.31;5058343;28;20259;-64
2021/04/24 23:27:27;;;;;;;16.48;5.35;;;;;;;22.98;44.67;98760.81;5061916;28;20258;-61
2021/04/24 23:29:53;;;;;;;14.32;5.57;;;;;;;22.97;44.96;98753.81;5060906;28;20208;-63
2021/04/24 23:32:20;;;;;;;13.18;5.82;;;;;;;22.96;44.13;98752.13;5060693;28;20262;-64
2021/04/24 23:34:46;;;;;;;11.65;4.82;;;;;;;22.96;43.93;98758.28;5060325;28;20712;-63
2021/04/24 23:37:12;;;;;;;9.95;5.38;;;;;;;22.95;44.06;98761.09;5058608;28;20882;-56
2021/04/24 23:39:38;;;;;;;10.85;5.45;;;;;;;22.95;44.04;98761.09;5048465;28;20205;-62
2021/04/24 23:42:05;;;;;;;11.32;5.00;;;;;;;22.95;44.14;98761.09;5052760;28;20809;-62
2021/04/24 23:44:31;;;;;;;11.93;4.93;;;;;;;22.91;44.63;98766.78;5052015;28;20291;-63
2021/04/24 23:46:57;;;;;;;11.75;5.22;;;;;;;22.95;43.89;98761.09;5059132;28;20224;-63
2021/04/24 23:49:24;;;;;;;10.30;5.18;;;;;;;22.93;44.78;98761.25;5057451;28;20206;-56
2021/04/24 23:51:51;;;;;;;9.02;5.13;;;;;;;22.92;43.72;98757.78;5054049;28;20221;-63
2021/04/24 23:54:17;;;;;;;10.55;4.93;;;;;;;22.91;43.54;98756.13;5059448;28;20309;-63
2021/04/24 23:56:43;;;;;;;8.50;4.53;;;;;;;22.90;44.42;98759.75;5054219;28;20211;-63
2021/04/24 23:59:09;;;;;;;9.90;4.88;;;;;;;22.90;43.91;98765.09;5063707;28;20215;-62
